createdAt,value
2018-07-06T00:03:01.140Z,17.60
2018-07-06T00:05:41.049Z,17.60
2018-07-06T00:10:54.997Z,17.50
2018-07-06T00:13:34.860Z,17.40
2018-07-06T00:18:48.561Z,17.30
2018-07-06T00:21:28.621Z,17.40
2018-07-06T00:24:08.473Z,17.50
2018-07-06T00:26:48.414Z,17.60
2018-07-06T00:29:28.361Z,17.40
2018-07-06T00:32:08.201Z,17.30
2018-07-06T00:34:48.122Z,17.30
2018-07-06T00:37:28.110Z,17.30
2018-07-06T00:40:09.185Z,17.40
2018-07-06T00:42:49.103Z,17.50
2018-07-06T00:45:29.999Z,17.40
2018-07-06T00:48:09.928Z,17.40
2018-07-06T00:50:49.874Z,17.20
2018-07-06T00:53:30.751Z,17.10
2018-07-06T00:56:10.621Z,17.00
2018-07-06T00:58:50.873Z,16.90
2018-07-06T01:01:30.856Z,16.80
2018-07-06T01:04:10.932Z,16.70
2018-07-06T01:09:25.331Z,16.70
2018-07-06T01:12:10.491Z,16.60
2018-07-06T01:14:50.574Z,16.70
2018-07-06T01:17:30.373Z,16.70
2018-07-06T01:20:10.303Z,16.60
2018-07-06T01:22:50.430Z,16.60
2018-07-06T01:25:30.393Z,16.70
2018-07-06T01:28:10.265Z,16.60
2018-07-06T01:33:24.561Z,16.70
2018-07-06T01:36:04.400Z,16.70
2018-07-06T01:38:44.654Z,16.70
2018-07-06T01:41:24.841Z,16.60
2018-07-06T01:44:04.790Z,16.60
2018-07-06T01:46:45.015Z,16.60
2018-07-06T01:49:24.992Z,16.60
2018-07-06T01:52:04.770Z,16.60
2018-07-06T01:54:44.837Z,16.50
2018-07-06T01:59:58.920Z,16.60
2018-07-06T02:02:39.111Z,16.60
2018-07-06T02:05:19.163Z,16.60
2018-07-06T02:07:59.321Z,16.70
2018-07-06T02:10:39.241Z,16.80
2018-07-06T02:13:20.075Z,16.90
2018-07-06T02:16:00.085Z,17.00
2018-07-06T02:18:40.337Z,17.00
2018-07-06T02:21:20.493Z,16.90
2018-07-06T02:24:00.596Z,16.70
2018-07-06T02:29:14.460Z,16.50
2018-07-06T02:34:28.448Z,16.50
2018-07-06T02:37:08.286Z,16.50
2018-07-06T02:39:48.218Z,16.50
2018-07-06T02:42:29.280Z,16.50
2018-07-06T02:47:44.520Z,16.50
2018-07-06T02:50:24.486Z,16.50
2018-07-06T02:53:04.571Z,16.50
2018-07-06T02:58:22.702Z,16.70
2018-07-06T03:01:03.041Z,16.80
2018-07-06T03:03:43.541Z,16.90
2018-07-06T03:06:23.737Z,16.90
2018-07-06T03:09:03.920Z,16.90
2018-07-06T03:11:44.071Z,17.00
2018-07-06T03:14:24.128Z,17.00
2018-07-06T03:17:03.966Z,16.80
2018-07-06T03:19:43.908Z,16.60
2018-07-06T03:22:23.997Z,16.50
2018-07-06T03:25:03.939Z,16.50
2018-07-06T03:27:43.943Z,16.40
2018-07-06T03:30:24.435Z,16.40
2018-07-06T03:33:04.540Z,16.50
2018-07-06T03:35:44.632Z,16.50
2018-07-06T03:38:24.702Z,16.50
2018-07-06T03:41:05.143Z,16.50
2018-07-06T03:43:45.203Z,16.50
2018-07-06T03:46:25.624Z,16.40
2018-07-06T03:49:05.811Z,16.40
2018-07-06T03:51:45.669Z,16.40
2018-07-06T03:54:25.564Z,16.40
2018-07-06T03:57:05.467Z,16.30
2018-07-06T03:59:45.506Z,16.30
2018-07-06T04:02:25.761Z,16.30
2018-07-06T04:05:05.587Z,16.30
2018-07-06T04:07:45.577Z,16.30
2018-07-06T04:10:26.939Z,16.40
2018-07-06T04:13:06.768Z,16.40
2018-07-06T04:15:46.808Z,16.50
2018-07-06T04:18:27.656Z,16.60
2018-07-06T04:23:41.750Z,16.70
2018-07-06T04:26:21.932Z,16.70
2018-07-06T04:29:02.006Z,16.70
2018-07-06T04:31:41.902Z,16.70
2018-07-06T04:34:21.907Z,16.80
2018-07-06T04:37:01.959Z,16.70
2018-07-06T04:39:42.185Z,16.60
2018-07-06T04:42:22.106Z,16.50
2018-07-06T04:45:02.160Z,16.50
2018-07-06T04:47:41.937Z,16.50
2018-07-06T04:50:21.960Z,16.40
2018-07-06T04:53:01.936Z,16.30
2018-07-06T04:55:41.981Z,16.40
2018-07-06T04:58:23.062Z,16.30
2018-07-06T05:01:02.871Z,16.40
2018-07-06T05:03:42.928Z,16.30
2018-07-06T05:06:22.879Z,16.20
2018-07-06T05:09:03.228Z,16.20
2018-07-06T05:11:43.160Z,16.20
2018-07-06T05:16:57.160Z,16.30
2018-07-06T05:19:37.690Z,16.20
2018-07-06T05:24:51.806Z,16.10
2018-07-06T05:27:31.848Z,16.10
2018-07-06T05:30:11.825Z,16.10
2018-07-06T05:32:51.788Z,16.10
2018-07-06T05:35:32.387Z,16.10
2018-07-06T05:38:12.236Z,16.10
2018-07-06T05:40:52.517Z,16.00
2018-07-06T05:43:32.479Z,16.00
2018-07-06T05:46:12.500Z,16.10
2018-07-06T05:48:52.560Z,16.10
2018-07-06T05:51:32.464Z,16.10
2018-07-06T05:54:12.251Z,16.00
2018-07-06T05:56:52.401Z,16.00
2018-07-06T05:59:33.335Z,16.00
2018-07-06T06:02:13.341Z,16.00
2018-07-06T06:04:53.180Z,15.90
2018-07-06T06:07:23.541Z,16.00
2018-07-06T06:09:52.481Z,16.00
2018-07-06T06:12:21.526Z,16.00
2018-07-06T06:14:52.009Z,16.00
2018-07-06T06:17:21.918Z,15.90
2018-07-06T06:19:50.817Z,15.90
2018-07-06T06:22:19.744Z,15.90
2018-07-06T06:24:48.852Z,15.90
2018-07-06T06:27:17.755Z,15.90
2018-07-06T06:32:15.809Z,15.90
2018-07-06T06:34:44.797Z,16.00
2018-07-06T06:37:14.956Z,15.90
2018-07-06T06:44:40.920Z,15.90
2018-07-06T06:47:09.931Z,15.90
2018-07-06T06:49:39.854Z,15.90
2018-07-06T06:52:09.486Z,15.90
2018-07-06T06:54:38.484Z,16.00
2018-07-06T06:57:07.927Z,16.00
2018-07-06T06:59:37.441Z,16.00
2018-07-06T07:02:07.241Z,16.00
2018-07-06T07:07:04.705Z,16.00
2018-07-06T07:09:33.740Z,16.10
2018-07-06T07:12:02.738Z,16.10
2018-07-06T07:14:31.999Z,16.20
2018-07-06T07:19:29.840Z,16.20
2018-07-06T07:21:59.373Z,16.20
2018-07-06T07:26:58.861Z,16.20
2018-07-06T07:29:28.127Z,16.20
2018-07-06T07:31:57.107Z,16.20
2018-07-06T07:34:26.766Z,16.20
2018-07-06T07:36:56.742Z,16.10
2018-07-06T07:39:26.232Z,16.20
2018-07-06T07:41:55.262Z,16.20
2018-07-06T07:44:24.252Z,16.30
2018-07-06T07:46:53.189Z,16.20
2018-07-06T07:52:08.940Z,16.30
2018-07-06T07:54:45.518Z,16.30
2018-07-06T07:57:15.388Z,16.10
2018-07-06T07:59:44.428Z,16.10
2018-07-06T08:02:13.345Z,16.10
2018-07-06T08:04:42.423Z,16.10
2018-07-06T08:07:11.362Z,16.10
2018-07-06T08:09:40.548Z,16.10
2018-07-06T08:14:38.559Z,16.00
2018-07-06T08:17:07.440Z,16.10
2018-07-06T08:19:36.341Z,16.00
2018-07-06T08:22:07.334Z,16.00
2018-07-06T08:24:36.574Z,16.10
2018-07-06T08:27:06.309Z,16.20
2018-07-06T08:29:35.577Z,16.10
2018-07-06T08:32:05.603Z,16.10
2018-07-06T08:34:45.659Z,16.20
2018-07-06T08:37:57.916Z,16.20
2018-07-06T08:40:27.652Z,16.30
2018-07-06T08:45:29.911Z,16.30
2018-07-06T08:50:27.403Z,16.30
2018-07-06T08:52:56.925Z,16.40
2018-07-06T08:55:26.328Z,16.40
2018-07-06T08:57:56.425Z,16.40
2018-07-06T09:02:54.732Z,16.40
2018-07-06T09:05:23.734Z,16.40
2018-07-06T09:07:52.719Z,16.50
2018-07-06T09:10:21.770Z,16.40
2018-07-06T09:12:50.680Z,16.50
2018-07-06T09:17:49.082Z,16.60
2018-07-06T09:25:16.415Z,16.70
2018-07-06T09:27:45.242Z,16.80
2018-07-06T09:30:14.787Z,16.70
2018-07-06T09:32:44.032Z,16.70
2018-07-06T09:35:13.099Z,16.80
2018-07-06T09:37:42.323Z,16.80
2018-07-06T09:40:11.207Z,16.80
2018-07-06T09:42:40.090Z,16.90
2018-07-06T09:45:09.479Z,17.00
2018-07-06T09:47:38.340Z,17.10
2018-07-06T09:50:07.247Z,17.10
2018-07-06T09:52:36.247Z,17.20
2018-07-06T09:55:05.936Z,17.30
2018-07-06T09:57:34.949Z,17.30
2018-07-06T10:00:04.068Z,17.10
2018-07-06T10:02:32.985Z,17.20
2018-07-06T10:07:30.375Z,17.40
2018-07-06T10:09:59.479Z,17.40
2018-07-06T10:12:28.501Z,17.30
2018-07-06T10:14:57.449Z,17.40
2018-07-06T10:19:54.956Z,17.50
2018-07-06T10:22:23.809Z,17.60
2018-07-06T10:24:53.118Z,17.70
2018-07-06T10:27:26.640Z,17.70
2018-07-06T10:31:09.399Z,17.70
2018-07-06T10:33:39.134Z,17.80
2018-07-06T10:36:07.963Z,17.90
2018-07-06T10:38:36.881Z,17.80
2018-07-06T10:41:05.801Z,17.80
2018-07-06T10:43:35.089Z,17.80
2018-07-06T10:46:05.007Z,17.90
2018-07-06T10:51:02.985Z,18.00
2018-07-06T10:53:31.830Z,18.00
2018-07-06T10:56:01.293Z,18.10
2018-07-06T11:00:58.751Z,18.20
2018-07-06T11:03:27.691Z,18.30
2018-07-06T11:05:56.625Z,18.20
2018-07-06T11:08:26.339Z,18.30
2018-07-06T11:10:56.780Z,18.30
2018-07-06T11:15:54.201Z,18.40
2018-07-06T11:18:23.107Z,18.50
2018-07-06T11:20:51.999Z,18.50
2018-07-06T11:23:20.908Z,18.50
2018-07-06T11:25:49.771Z,18.40
2018-07-06T11:28:18.691Z,18.40
2018-07-06T11:30:48.597Z,18.50
2018-07-06T11:33:18.316Z,18.50
2018-07-06T11:35:47.902Z,18.60
2018-07-06T11:38:17.863Z,18.50
2018-07-06T11:40:46.673Z,18.60
2018-07-06T11:43:15.591Z,18.70
2018-07-06T11:45:44.503Z,18.60
2018-07-06T11:48:13.491Z,18.70
2018-07-06T11:50:43.475Z,18.80
2018-07-06T11:53:12.914Z,18.90
2018-07-06T11:55:42.459Z,18.90
2018-07-06T11:58:11.516Z,18.80
2018-07-06T12:00:40.469Z,18.80
2018-07-06T12:03:09.402Z,19.00
2018-07-06T12:05:38.650Z,19.00
2018-07-06T12:08:07.552Z,19.00
2018-07-06T12:10:36.492Z,19.10
2018-07-06T12:15:34.902Z,19.10
2018-07-06T12:18:03.935Z,19.10
2018-07-06T12:20:32.849Z,19.20
2018-07-06T12:23:01.810Z,19.20
2018-07-06T12:25:30.741Z,19.10
2018-07-06T12:27:59.692Z,19.20
2018-07-06T12:30:29.161Z,19.20
2018-07-06T12:35:27.615Z,19.30
2018-07-06T12:37:57.383Z,19.20
2018-07-06T12:40:26.232Z,19.30
2018-07-06T12:42:55.131Z,19.40
2018-07-06T12:45:24.057Z,19.40
2018-07-06T12:47:52.980Z,19.50
2018-07-06T12:50:22.711Z,19.50
2018-07-06T12:52:51.564Z,19.50
2018-07-06T12:55:20.584Z,19.40
2018-07-06T12:57:49.489Z,19.50
2018-07-06T13:00:18.447Z,19.50
2018-07-06T13:02:47.840Z,19.50
2018-07-06T13:05:16.758Z,19.50
2018-07-06T13:07:45.958Z,19.50
2018-07-06T13:10:14.889Z,19.50
2018-07-06T13:12:44.429Z,19.50
2018-07-06T13:15:13.811Z,19.50
2018-07-06T13:17:42.756Z,19.50
2018-07-06T13:20:12.021Z,19.60
2018-07-06T13:22:40.941Z,19.50
2018-07-06T13:25:09.969Z,19.50
2018-07-06T13:27:38.921Z,19.50
2018-07-06T13:30:09.130Z,19.60
2018-07-06T13:32:38.661Z,19.60
2018-07-06T13:35:07.569Z,19.60
2018-07-06T13:37:37.249Z,19.60
2018-07-06T13:40:06.894Z,19.70
2018-07-06T13:42:35.869Z,19.70
2018-07-06T13:47:34.724Z,20.00
2018-07-06T13:50:03.740Z,20.00
2018-07-06T13:52:32.641Z,20.10
2018-07-06T13:55:01.533Z,20.30
2018-07-06T13:57:31.489Z,20.40
2018-07-06T14:00:01.298Z,20.40
2018-07-06T14:02:30.842Z,20.40
2018-07-06T14:04:59.823Z,20.40
2018-07-06T14:07:29.314Z,20.50
2018-07-06T14:09:58.915Z,20.60
2018-07-06T14:12:27.820Z,20.50
2018-07-06T14:14:56.810Z,20.60
2018-07-06T14:17:25.806Z,20.50
2018-07-06T14:19:54.700Z,20.50
2018-07-06T14:22:23.644Z,20.50
2018-07-06T14:24:53.194Z,20.50
2018-07-06T14:27:22.994Z,20.60
2018-07-06T14:29:52.191Z,20.60
2018-07-06T14:32:21.104Z,20.60
2018-07-06T14:37:19.200Z,20.60
2018-07-06T14:39:48.129Z,20.60
2018-07-06T14:42:17.060Z,20.70
2018-07-06T14:44:46.499Z,20.60
2018-07-06T14:47:15.493Z,20.60
2018-07-06T14:49:45.370Z,20.50
2018-07-06T14:52:14.341Z,20.40
2018-07-06T14:54:43.229Z,20.50
2018-07-06T14:57:12.144Z,20.50
2018-07-06T14:59:41.110Z,20.30
2018-07-06T15:02:10.876Z,20.30
2018-07-06T15:04:40.731Z,20.40
2018-07-06T15:07:10.733Z,20.50
2018-07-06T15:09:40.276Z,20.50
2018-07-06T15:12:10.301Z,20.50
2018-07-06T15:14:39.259Z,20.50
2018-07-06T15:17:09.715Z,20.40
2018-07-06T15:19:39.109Z,20.40
2018-07-06T15:22:09.096Z,20.50
2018-07-06T15:24:38.308Z,20.70
2018-07-06T15:27:07.522Z,20.70
2018-07-06T15:29:36.803Z,20.80
2018-07-06T15:32:05.885Z,20.70
2018-07-06T15:34:34.775Z,20.60
2018-07-06T15:37:03.704Z,20.50
2018-07-06T15:39:32.617Z,20.60
2018-07-06T15:42:01.509Z,20.60
2018-07-06T15:44:30.477Z,20.50
2018-07-06T15:46:59.380Z,20.50
2018-07-06T15:49:28.350Z,20.50
2018-07-06T15:51:57.672Z,20.50
2018-07-06T15:54:27.058Z,20.40
2018-07-06T15:56:55.921Z,20.40
2018-07-06T15:59:25.548Z,20.30
2018-07-06T16:01:55.121Z,20.30
2018-07-06T16:06:52.451Z,20.30
2018-07-06T16:09:21.381Z,20.50
2018-07-06T16:11:50.682Z,20.40
2018-07-06T16:16:49.764Z,20.40
2018-07-06T16:19:18.761Z,20.20
2018-07-06T16:21:47.661Z,20.30
2018-07-06T16:26:45.265Z,20.40
2018-07-06T16:29:14.232Z,20.40
2018-07-06T16:34:12.331Z,20.30
2018-07-06T16:36:41.730Z,20.30
2018-07-06T16:39:10.961Z,20.30
2018-07-06T16:41:40.250Z,20.30
2018-07-06T16:44:09.404Z,20.30
2018-07-06T16:49:07.929Z,20.30
2018-07-06T16:51:37.860Z,20.30
2018-07-06T16:54:07.870Z,20.30
2018-07-06T16:56:37.254Z,20.30
2018-07-06T16:59:07.377Z,20.20
2018-07-06T17:01:36.780Z,20.10
2018-07-06T17:04:06.199Z,20.00
2018-07-06T17:06:35.839Z,20.10
2018-07-06T17:09:05.981Z,20.10
2018-07-06T17:11:35.960Z,20.10
2018-07-06T17:14:05.244Z,20.20
2018-07-06T17:16:34.449Z,20.20
2018-07-06T17:19:03.648Z,20.20
2018-07-06T17:21:32.949Z,20.30
2018-07-06T17:24:02.842Z,20.30
2018-07-06T17:26:32.558Z,20.30
2018-07-06T17:29:03.002Z,20.30
2018-07-06T17:31:32.180Z,20.30
2018-07-06T17:34:01.068Z,20.30
2018-07-06T17:36:30.984Z,20.40
2018-07-06T17:39:00.842Z,20.30
2018-07-06T17:41:30.988Z,20.20
2018-07-06T17:44:00.626Z,20.20
2018-07-06T17:46:30.950Z,20.20
2018-07-06T17:49:00.508Z,20.20
2018-07-06T17:51:29.461Z,20.20
2018-07-06T17:53:58.762Z,20.20
2018-07-06T17:56:28.082Z,20.20
2018-07-06T17:58:57.390Z,20.20
2018-07-06T18:01:26.760Z,20.20
2018-07-06T18:03:55.930Z,20.20
2018-07-06T18:06:25.142Z,20.10
2018-07-06T18:08:55.043Z,20.10
2018-07-06T18:11:24.960Z,20.10
2018-07-06T18:13:54.750Z,20.10
2018-07-06T18:16:24.463Z,20.10
2018-07-06T18:21:23.292Z,20.10
2018-07-06T18:23:53.409Z,20.10
2018-07-06T18:26:22.843Z,20.10
2018-07-06T18:28:52.302Z,20.10
2018-07-06T18:31:21.240Z,20.00
2018-07-06T18:33:50.701Z,20.00
2018-07-06T18:36:20.133Z,19.90
2018-07-06T18:38:49.420Z,19.90
2018-07-06T18:41:18.596Z,19.90
2018-07-06T18:43:47.512Z,19.80
2018-07-06T18:46:17.199Z,19.70
2018-07-06T18:48:47.023Z,19.70
2018-07-06T18:51:16.507Z,19.70
2018-07-06T18:53:46.163Z,19.70
2018-07-06T18:56:15.103Z,19.60
2018-07-06T19:01:12.776Z,19.60
2018-07-06T19:06:12.109Z,19.60
2018-07-06T19:08:41.510Z,19.50
2018-07-06T19:11:11.656Z,19.50
2018-07-06T19:13:41.739Z,19.50
2018-07-06T19:16:11.475Z,19.50
2018-07-06T19:18:41.677Z,19.50
2018-07-06T19:21:11.541Z,19.50
2018-07-06T19:23:41.241Z,19.50
2018-07-06T19:26:10.162Z,19.50
2018-07-06T19:31:07.693Z,19.40
2018-07-06T19:33:37.603Z,19.20
2018-07-06T19:36:06.682Z,19.20
2018-07-06T19:38:35.975Z,19.20
2018-07-06T19:41:04.934Z,19.20
2018-07-06T19:46:02.411Z,19.20
2018-07-06T19:50:59.840Z,19.00
2018-07-06T19:53:28.765Z,18.90
2018-07-06T19:55:57.711Z,18.80
2018-07-06T19:58:27.988Z,18.80
2018-07-06T20:00:56.908Z,18.80
2018-07-06T20:03:25.821Z,18.80
2018-07-06T20:05:54.741Z,18.60
2018-07-06T20:08:23.655Z,18.60
2018-07-06T20:13:22.607Z,18.60
2018-07-06T20:15:51.886Z,18.60
2018-07-06T20:18:22.131Z,18.50
2018-07-06T20:20:51.071Z,18.40
2018-07-06T20:25:49.047Z,18.40
2018-07-06T20:28:18.001Z,18.40
2018-07-06T20:30:47.541Z,18.40
2018-07-06T20:33:16.429Z,18.30
2018-07-06T20:35:45.386Z,18.30
2018-07-06T20:38:14.327Z,18.20
2018-07-06T20:45:41.048Z,17.80
2018-07-06T20:48:10.006Z,17.50
2018-07-06T20:50:39.092Z,17.40
2018-07-06T20:55:36.598Z,17.40
2018-07-06T20:58:05.601Z,17.50
2018-07-06T21:00:34.522Z,17.50
2018-07-06T21:03:03.978Z,17.30
2018-07-06T21:05:32.924Z,17.20
2018-07-06T21:08:02.544Z,17.10
2018-07-06T21:10:31.501Z,17.20
2018-07-06T21:13:00.417Z,17.30
2018-07-06T21:17:57.843Z,17.30
2018-07-06T21:20:27.100Z,17.40
2018-07-06T21:22:56.087Z,17.60
2018-07-06T21:25:25.020Z,17.60
2018-07-06T21:27:53.914Z,17.50
2018-07-06T21:30:22.882Z,17.40
2018-07-06T21:32:51.811Z,17.40
2018-07-06T21:35:21.267Z,17.20
2018-07-06T21:37:50.261Z,17.10
2018-07-06T21:40:19.783Z,17.10
2018-07-06T21:42:48.798Z,17.10
2018-07-06T21:45:17.717Z,17.10
2018-07-06T21:47:46.611Z,17.10
2018-07-06T21:50:16.412Z,17.10
2018-07-06T21:52:46.068Z,17.10
2018-07-06T21:55:14.994Z,17.10
2018-07-06T21:57:43.924Z,17.30
2018-07-06T22:02:41.308Z,17.30
2018-07-06T22:05:10.271Z,17.40
2018-07-06T22:07:39.154Z,17.50
2018-07-06T22:10:08.152Z,17.60
2018-07-06T22:12:37.746Z,17.60
2018-07-06T22:15:06.765Z,17.70
2018-07-06T22:17:35.894Z,17.60
2018-07-06T22:20:04.880Z,17.40
2018-07-06T22:22:33.741Z,17.50
2018-07-06T22:27:31.400Z,17.40
2018-07-06T22:30:00.340Z,17.40
2018-07-06T22:32:29.266Z,17.40
2018-07-06T22:34:58.153Z,17.20
2018-07-06T22:37:27.202Z,17.20
2018-07-06T22:39:56.110Z,17.10
2018-07-06T22:42:25.941Z,17.00
2018-07-06T22:44:54.939Z,17.00
2018-07-06T22:47:24.512Z,17.10
2018-07-06T22:49:53.413Z,17.10
2018-07-06T22:52:22.319Z,17.20
2018-07-06T22:54:51.281Z,17.30
2018-07-06T22:57:20.266Z,17.30
2018-07-06T22:59:49.148Z,17.30
2018-07-06T23:04:48.130Z,17.20
2018-07-06T23:07:17.091Z,17.30
2018-07-06T23:09:46.173Z,17.20
2018-07-06T23:12:15.082Z,17.20
2018-07-06T23:14:44.080Z,17.20
2018-07-06T23:17:12.955Z,17.30
2018-07-06T23:19:41.863Z,17.30
2018-07-06T23:22:11.690Z,17.20
2018-07-06T23:24:41.279Z,17.30
2018-07-06T23:27:10.170Z,17.40
2018-07-06T23:29:39.080Z,17.30
2018-07-06T23:32:08.024Z,17.30
2018-07-06T23:34:36.934Z,17.30
2018-07-06T23:37:05.865Z,17.20
2018-07-06T23:39:35.392Z,17.30
2018-07-06T23:42:05.280Z,17.30
2018-07-06T23:44:34.870Z,17.10
2018-07-06T23:47:03.866Z,17.10
2018-07-06T23:49:32.785Z,17.00
2018-07-06T23:52:01.734Z,16.90
2018-07-06T23:54:30.671Z,17.00
